Time;durP1;ratioP1;P1;durP2;ratioP2;P2;SDS_P1;SDS_P2;PMS_P1;PMS_P2;Temp;Humidity;BMP_temperature;BMP_pressure;BME280_temperature;BME280_humidity;BME280_pressure;Samples;Min_cycle;Max_cycle;Signal;HPM_P1;HPM_P2
2020/12/02 00:00:38;;;;;;;53.50;29.80;;;;;;;3.66;100.00;101281.34;5216617;28;20264;-77
2020/12/02 00:03:24;;;;;;;53.92;30.67;;;;;;;3.58;100.00;101280.47;5216209;28;20030;-77
2020/12/02 00:05:56;;;;;;;52.58;30.85;;;;;;;3.59;100.00;101277.84;5217694;28;20025;-78
2020/12/02 00:08:35;;;;;;;50.30;30.13;;;;;;;3.65;100.00;101283.03;5215795;28;20391;-78
2020/12/02 00:11:09;;;;;;;52.80;30.63;;;;;;;3.55;100.00;101279.56;5212920;28;20028;-76
2020/12/02 00:13:45;;;;;;;51.08;30.15;;;;;;;3.54;100.00;101283.00;5205408;28;20032;-77
2020/12/02 00:16:21;;;;;;;50.63;30.20;;;;;;;3.68;100.00;101272.75;5210580;28;20062;-77
2020/12/02 00:18:52;;;;;;;55.58;31.58;;;;;;;3.57;100.00;101278.69;5214556;28;20024;-78
2020/12/02 00:21:25;;;;;;;54.22;31.38;;;;;;;3.62;100.00;101277.03;5210996;28;20029;-78
2020/12/02 00:23:56;;;;;;;54.55;31.25;;;;;;;3.58;100.00;101269.25;5209973;28;20037;-78
2020/12/02 00:26:27;;;;;;;57.40;32.42;;;;;;;3.60;100.00;101271.84;5216863;28;20043;-77
2020/12/02 00:28:58;;;;;;;55.90;32.70;;;;;;;3.51;100.00;101273.53;5211521;28;20022;-78
2020/12/02 00:31:28;;;;;;;56.33;32.58;;;;;;;3.49;100.00;101276.94;5208515;28;20033;-78
2020/12/02 00:33:59;;;;;;;55.55;32.38;;;;;;;3.47;100.00;101271.78;5209433;28;20063;-78
2020/12/02 00:36:29;;;;;;;60.60;33.20;;;;;;;3.53;100.00;101270.97;5209033;28;20040;-79
2020/12/02 00:38:59;;;;;;;55.78;32.55;;;;;;;3.48;100.00;101272.63;5209792;28;20075;-77
2020/12/02 00:41:29;;;;;;;57.40;32.63;;;;;;;3.54;100.00;101277.84;5209735;28;20041;-76
2020/12/02 00:44:00;;;;;;;57.42;32.72;;;;;;;3.48;100.00;101283.84;5208240;28;20061;-77
2020/12/02 00:46:32;;;;;;;53.03;31.35;;;;;;;3.54;100.00;101277.84;5208203;28;20502;-76
2020/12/02 00:49:04;;;;;;;60.42;32.63;;;;;;;3.50;100.00;101278.69;5212007;28;20132;-78
2020/12/02 00:51:34;;;;;;;56.65;33.15;;;;;;;3.51;100.00;101278.69;5209155;28;20104;-77
2020/12/02 00:54:05;;;;;;;57.92;33.42;;;;;;;3.44;100.00;101281.25;5208476;28;20041;-78
2020/12/02 00:56:38;;;;;;;55.70;32.45;;;;;;;3.46;100.00;101280.41;5217034;28;20033;-78
2020/12/02 00:59:20;;;;;;;54.85;32.75;;;;;;;3.47;100.00;101270.91;5210361;28;20406;-77
2020/12/02 01:02:12;;;;;;;57.58;31.75;;;;;;;3.48;100.00;101275.22;5209555;28;20576;-78
2020/12/02 01:04:45;;;;;;;56.25;32.88;;;;;;;3.42;100.00;101267.44;5209104;28;20108;-79
2020/12/02 01:07:16;;;;;;;56.60;32.55;;;;;;;3.43;100.00;101269.19;5207227;28;20761;-77
2020/12/02 01:09:46;;;;;;;54.42;31.88;;;;;;;3.46;100.00;101269.19;5207415;28;20041;-78
2020/12/02 01:12:17;;;;;;;55.20;31.58;;;;;;;3.47;100.00;101276.06;5208983;28;20443;-77
2020/12/02 01:14:49;;;;;;;56.50;30.95;;;;;;;3.54;100.00;101268.34;5207615;28;20040;-77
2020/12/02 01:17:19;;;;;;;58.03;32.58;;;;;;;3.40;100.00;101271.75;5213493;28;20065;-78
2020/12/02 01:19:49;;;;;;;49.22;31.10;;;;;;;3.47;100.00;101270.91;5212332;28;20099;-78
2020/12/02 01:22:24;;;;;;;56.45;32.58;;;;;;;3.40;100.00;101271.75;5211703;28;20037;-77
2020/12/02 01:25:06;;;;;;;58.25;32.60;;;;;;;3.39;100.00;101272.63;5211974;28;20029;-74
2020/12/02 01:27:54;;;;;;;55.40;32.50;;;;;;;3.36;100.00;101267.44;5216930;28;20463;-76
2020/12/02 01:30:25;;;;;;;54.97;31.02;;;;;;;3.38;100.00;101268.31;5223591;28;20078;-78
2020/12/02 01:32:56;;;;;;;55.83;32.67;;;;;;;3.27;100.00;101277.72;5223997;28;20025;-78
2020/12/02 01:35:28;;;;;;;56.72;32.90;;;;;;;3.31;100.00;101275.16;5230849;28;20121;-78
2020/12/02 01:38:03;;;;;;;60.60;32.53;;;;;;;3.30;100.00;101265.69;5232359;28;20025;-78
2020/12/02 01:40:35;;;;;;;51.90;31.10;;;;;;;3.35;100.00;101274.31;5232232;28;20067;-79
2020/12/02 01:43:08;;;;;;;51.53;31.77;;;;;;;3.39;100.00;101273.47;5232136;28;20116;-77
2020/12/02 01:46:24;;;;;;;53.00;31.92;;;;;;;3.42;100.00;101265.75;5219836;28;20032;-77
2020/12/02 01:49:23;;;;;;;51.23;30.83;;;;;;;3.45;100.00;101262.28;5229837;28;20024;-76
2020/12/02 01:52:29;;;;;;;53.42;30.20;;;;;;;3.44;100.00;101260.56;5232662;28;20037;-78
2020/12/02 01:55:02;;;;;;;49.60;29.95;;;;;;;3.42;100.00;101262.28;5230331;28;20041;-76
2020/12/02 01:57:35;;;;;;;52.80;30.00;;;;;;;3.47;100.00;101260.56;5224165;28;20491;-78
2020/12/02 02:00:12;;;;;;;52.92;32.10;;;;;;;3.38;100.00;101261.41;5212511;28;20029;-78
2020/12/02 02:02:56;;;;;;;52.17;30.85;;;;;;;3.48;100.00;101265.75;5210948;28;20617;-78
2020/12/02 02:05:41;;;;;;;50.38;30.52;;;;;;;3.48;100.00;101259.72;5211936;28;20026;-79
2020/12/02 02:08:12;;;;;;;49.13;29.83;;;;;;;3.51;100.00;101263.19;5211183;28;20032;-77
2020/12/02 02:10:51;;;;;;;46.60;28.35;;;;;;;3.67;100.00;101264.97;5210935;28;20492;-78
2020/12/02 02:13:56;;;;;;;47.60;29.30;;;;;;;3.53;100.00;101260.63;5210774;28;20036;-77
2020/12/02 02:16:29;;;;;;;47.85;29.92;;;;;;;3.56;100.00;101265.78;5209838;28;20034;-78
2020/12/02 02:19:00;;;;;;;50.80;29.98;;;;;;;3.42;100.00;101262.28;5210358;28;20495;-77
2020/12/02 02:21:34;;;;;;;53.40;31.42;;;;;;;3.41;100.00;101265.72;5210858;28;20026;-78
2020/12/02 02:24:04;;;;;;;55.40;29.45;;;;;;;3.52;100.00;101269.22;5209516;28;20029;-78
2020/12/02 02:26:41;;;;;;;45.75;27.85;;;;;;;3.62;100.00;101257.19;5217533;28;20479;-79
2020/12/02 02:29:18;;;;;;;51.13;30.67;;;;;;;3.47;100.00;101255.41;5212960;28;20116;-76
2020/12/02 02:31:57;;;;;;;47.22;29.38;;;;;;;3.54;100.00;101262.34;5209330;28;20029;-77
2020/12/02 02:34:29;;;;;;;44.47;27.58;;;;;;;3.67;100.00;101255.50;5207000;28;20029;-76
2020/12/02 02:37:03;;;;;;;48.42;29.30;;;;;;;3.61;100.00;101254.63;5207450;28;20033;-76
2020/12/02 02:39:33;;;;;;;49.00;29.35;;;;;;;3.62;100.00;101252.03;5205595;28;20426;-78
2020/12/02 02:42:07;;;;;;;49.55;30.52;;;;;;;3.49;100.00;101254.56;5207087;28;20052;-77
2020/12/02 02:44:38;;;;;;;48.17;28.83;;;;;;;3.63;100.00;101243.41;5214801;28;20087;-76
2020/12/02 02:47:08;;;;;;;47.30;28.90;;;;;;;3.54;100.00;101257.19;5206782;28;20479;-78
2020/12/02 02:49:38;;;;;;;50.67;30.20;;;;;;;3.42;100.00;101258.00;5206896;28;20383;-78
2020/12/02 02:52:09;;;;;;;51.75;30.95;;;;;;;3.40;100.00;101251.09;5207512;28;20030;-77
2020/12/02 02:54:39;;;;;;;54.58;31.27;;;;;;;3.32;100.00;101255.34;5206715;28;20033;-76
2020/12/02 02:57:09;;;;;;;53.97;30.70;;;;;;;3.42;100.00;101250.25;5214846;28;20103;-76
2020/12/02 02:59:40;;;;;;;50.72;29.98;;;;;;;3.52;100.00;101248.56;5208927;28;20041;-78
2020/12/02 03:02:12;;;;;;;49.00;30.25;;;;;;;3.43;100.00;101249.41;5207231;28;20029;-78
2020/12/02 03:04:42;;;;;;;52.75;30.92;;;;;;;3.37;100.00;101240.75;5207783;28;20026;-77
2020/12/02 03:07:16;;;;;;;53.05;29.83;;;;;;;3.44;100.00;101247.66;5207937;28;20021;-78
2020/12/02 03:09:46;;;;;;;52.63;30.33;;;;;;;3.47;100.00;101245.06;5207746;28;20109;-77
2020/12/02 03:12:16;;;;;;;49.15;30.30;;;;;;;3.41;100.00;101239.91;5208110;28;20030;-77
2020/12/02 03:14:47;;;;;;;53.53;31.85;;;;;;;3.32;100.00;101245.88;5215728;28;20025;-77
2020/12/02 03:17:21;;;;;;;50.35;29.27;;;;;;;3.44;100.00;101247.66;5208545;28;20525;-79
2020/12/02 03:20:00;;;;;;;53.28;31.17;;;;;;;3.35;100.00;101242.47;5212493;28;20053;-78
2020/12/02 03:22:31;;;;;;;52.22;30.33;;;;;;;3.39;100.00;101231.28;5226841;28;20505;-77
2020/12/02 03:25:02;;;;;;;50.58;30.35;;;;;;;3.43;100.00;101243.34;5227852;28;20104;-77
2020/12/02 03:27:33;;;;;;;50.45;30.75;;;;;;;3.43;100.00;101243.34;5221548;28;20056;-78
2020/12/02 03:30:04;;;;;;;55.22;31.70;;;;;;;3.35;100.00;101245.06;5208665;28;20063;-78
2020/12/02 03:32:34;;;;;;;55.47;31.02;;;;;;;3.41;100.00;101238.19;5213371;28;20025;-76
2020/12/02 03:35:05;;;;;;;51.08;31.25;;;;;;;3.36;100.00;101241.63;5228024;28;20028;-78
2020/12/02 03:37:35;;;;;;;57.40;30.58;;;;;;;3.34;100.00;101238.16;5229935;28;20025;-78
2020/12/02 03:40:07;;;;;;;51.30;31.88;;;;;;;3.34;100.00;101240.75;5229259;28;20478;-78
2020/12/02 03:42:39;;;;;;;52.85;31.23;;;;;;;3.37;100.00;101233.84;5229074;28;20064;-78
2020/12/02 03:45:10;;;;;;;52.10;31.45;;;;;;;3.39;100.00;101233.88;5223454;28;20033;-78
2020/12/02 03:47:40;;;;;;;51.20;31.65;;;;;;;3.43;100.00;101233.00;5208474;28;20025;-78
2020/12/02 03:50:12;;;;;;;52.45;31.77;;;;;;;3.40;100.00;101220.09;5205137;28;20032;-77
2020/12/02 03:52:42;;;;;;;56.22;31.20;;;;;;;3.31;100.00;101223.50;5208441;28;20029;-78
2020/12/02 03:55:13;;;;;;;55.20;31.27;;;;;;;3.36;100.00;101224.38;5209349;28;20870;-78
2020/12/02 03:57:43;;;;;;;55.70;32.83;;;;;;;3.38;100.00;101219.22;5217811;28;20025;-78
2020/12/02 04:00:13;;;;;;;55.88;31.75;;;;;;;3.50;100.00;101219.28;5207224;28;20022;-77
2020/12/02 04:02:44;;;;;;;54.88;32.20;;;;;;;3.34;100.00;101222.66;5217371;28;20036;-76
2020/12/02 04:05:14;;;;;;;54.22;31.92;;;;;;;3.35;100.00;101208.88;5224038;28;20025;-76
2020/12/02 04:07:45;;;;;;;50.22;31.17;;;;;;;3.44;100.00;101219.25;5226925;28;20092;-76
2020/12/02 04:10:15;;;;;;;57.30;31.92;;;;;;;3.49;100.00;101217.53;5227020;28;20021;-78
2020/12/02 04:12:46;;;;;;;47.88;30.88;;;;;;;3.47;100.00;101212.38;5227548;28;20024;-77
2020/12/02 04:15:20;;;;;;;52.28;31.50;;;;;;;3.42;100.00;101218.38;5219721;28;20033;-77
2020/12/02 04:17:50;;;;;;;49.03;30.23;;;;;;;3.52;100.00;101212.41;5206008;28;20581;-78
2020/12/02 04:20:21;;;;;;;53.33;31.25;;;;;;;3.50;100.00;101214.09;5207104;28;20061;-77
2020/12/02 04:22:53;;;;;;;58.67;32.78;;;;;;;3.53;100.00;101214.13;5206809;28;20099;-77
2020/12/02 04:25:25;;;;;;;53.72;30.27;;;;;;;3.50;100.00;101211.53;5207521;28;20029;-78
2020/12/02 04:27:56;;;;;;;49.15;29.83;;;;;;;3.52;100.00;101202.06;5215011;28;20424;-76
2020/12/02 04:30:26;;;;;;;48.17;29.42;;;;;;;3.42;100.00;101214.09;5208043;28;20079;-76
2020/12/02 04:32:56;;;;;;;53.65;31.67;;;;;;;3.48;100.00;101208.94;5220715;28;20525;-76
2020/12/02 04:35:26;;;;;;;50.80;30.48;;;;;;;3.54;100.00;101210.66;5226301;28;20609;-78
2020/12/02 04:37:57;;;;;;;48.85;30.25;;;;;;;3.58;100.00;101206.38;5228734;28;20062;-78
2020/12/02 04:40:33;;;;;;;47.33;29.77;;;;;;;3.61;100.00;101211.53;5228923;28;20024;-78
2020/12/02 04:43:12;;;;;;;46.85;29.55;;;;;;;3.57;100.00;101205.50;5231274;28;20025;-76
2020/12/02 04:45:43;;;;;;;48.78;29.63;;;;;;;3.57;100.00;101208.09;5223963;28;20029;-76
2020/12/02 04:48:19;;;;;;;52.38;30.33;;;;;;;3.56;100.00;101209.78;5219536;28;20112;-77
2020/12/02 04:50:49;;;;;;;46.00;29.85;;;;;;;3.58;100.00;101202.06;5226535;28;20017;-77
2020/12/02 04:53:22;;;;;;;46.15;28.90;;;;;;;3.64;100.00;101202.94;5226464;28;20044;-78
2020/12/02 04:55:54;;;;;;;51.17;29.92;;;;;;;3.61;100.00;101205.53;5223584;28;20056;-77
2020/12/02 04:58:34;;;;;;;47.50;29.05;;;;;;;3.71;100.00;101202.97;5228158;28;20023;-76
2020/12/02 05:01:28;;;;;;;45.40;28.85;;;;;;;3.75;100.00;101196.09;5211956;28;20394;-79
2020/12/02 05:04:05;;;;;;;47.92;29.83;;;;;;;3.68;100.00;101200.38;5212297;28;20044;-78
2020/12/02 05:06:37;;;;;;;48.03;29.13;;;;;;;3.66;100.00;101198.63;5212433;28;20514;-77
2020/12/02 05:09:16;;;;;;;47.25;29.55;;;;;;;3.74;100.00;101207.25;5210257;28;20357;-78
2020/12/02 05:12:01;;;;;;;45.00;28.52;;;;;;;3.76;100.00;101196.06;5212594;28;20017;-77
2020/12/02 05:14:42;;;;;;;51.13;28.77;;;;;;;3.81;100.00;101196.94;5221413;28;20631;-78
2020/12/02 05:17:18;;;;;;;49.50;29.35;;;;;;;3.88;100.00;101188.34;5232624;28;20383;-77
2020/12/02 05:20:20;;;;;;;49.08;29.85;;;;;;;3.86;100.00;101187.47;5231343;28;20397;-78
2020/12/02 05:22:51;;;;;;;49.35;29.25;;;;;;;3.99;100.00;101189.19;5233463;28;20040;-78
2020/12/02 05:25:29;;;;;;;54.63;31.20;;;;;;;3.79;100.00;101196.06;5232839;28;20511;-77
2020/12/02 05:28:16;;;;;;;51.25;31.17;;;;;;;3.78;100.00;101189.16;5222129;28;20371;-78
2020/12/02 05:30:47;;;;;;;48.75;29.27;;;;;;;3.77;100.00;101191.78;5213661;28;20029;-78
2020/12/02 05:33:20;;;;;;;53.00;32.60;;;;;;;3.63;100.00;101190.88;5228868;28;20058;-79
2020/12/02 05:35:57;;;;;;;55.13;32.55;;;;;;;3.61;100.00;101192.59;5230929;28;20029;-79
2020/12/02 05:38:37;;;;;;;54.45;31.83;;;;;;;3.82;100.00;101180.56;5246219;22;20508;-82
2020/12/02 05:41:12;;;;;;;55.90;33.05;;;;;;;3.72;100.00;101175.38;5208986;28;20116;-83
2020/12/02 05:43:57;;;;;;;57.63;34.20;;;;;;;3.79;100.00;101175.38;5209043;28;20475;-83
2020/12/02 05:46:42;;;;;;;41.13;25.40;;;;;;;3.79;100.00;101183.13;5208972;28;20449;-82
2020/12/02 05:49:17;;;;;;;53.35;32.53;;;;;;;3.83;100.00;101177.16;5209262;28;20035;-83
2020/12/02 05:51:51;;;;;;;56.30;34.13;;;;;;;3.69;100.00;101173.66;5209386;28;20029;-83
2020/12/02 05:54:23;;;;;;;54.28;32.65;;;;;;;3.65;100.00;101173.66;5209762;28;20360;-83
2020/12/02 05:56:53;;;;;;;56.70;33.13;;;;;;;3.74;100.00;101173.66;5209746;28;20056;-83
2020/12/02 05:59:24;;;;;;;58.15;32.50;;;;;;;3.66;100.00;101181.44;5209246;28;20072;-83
2020/12/02 06:01:56;;;;;;;62.13;33.78;;;;;;;3.73;100.00;101177.97;5208319;28;20451;-82
2020/12/02 06:04:27;;;;;;;57.00;33.90;;;;;;;3.65;100.00;101174.50;5209615;28;20364;-82
2020/12/02 06:06:58;;;;;;;54.67;32.58;;;;;;;3.68;100.00;101173.66;5208848;28;20091;-82
2020/12/02 06:09:49;;;;;;;54.72;32.88;;;;;;;3.80;100.00;101184.88;5208878;28;20030;-82
2020/12/02 06:12:22;;;;;;;55.03;32.50;;;;;;;3.85;100.00;101167.66;5208425;28;20109;-82
2020/12/02 06:14:53;;;;;;;56.20;32.20;;;;;;;3.90;100.00;101173.69;5207592;28;20116;-82
2020/12/02 06:17:31;;;;;;;51.47;31.83;;;;;;;3.82;100.00;101169.38;5208982;28;20455;-82
2020/12/02 06:20:01;;;;;;;53.55;32.58;;;;;;;3.86;100.00;101174.56;5209352;28;20167;-82
2020/12/02 06:22:51;;;;;;;52.10;32.15;;;;;;;3.89;100.00;101176.25;5209243;28;20061;-82
2020/12/02 06:25:53;;;;;;;51.80;32.03;;;;;;;3.79;100.00;101170.22;5209886;28;20022;-82
2020/12/02 06:28:30;;;;;;;53.45;32.72;;;;;;;3.99;100.00;101171.09;5232752;28;20108;-81
2020/12/02 06:31:18;;;;;;;53.33;32.97;;;;;;;3.81;100.00;101165.06;5183551;28;20693;-81
2020/12/02 06:33:49;;;;;;;56.63;31.75;;;;;;;3.85;100.00;101164.19;5201828;28;20545;-82
2020/12/02 06:36:23;;;;;;;52.03;32.38;;;;;;;3.71;100.00;101160.72;5202594;28;20075;-82
2020/12/02 06:39:24;;;;;;;51.45;31.38;;;;;;;3.85;100.00;101161.63;5202683;28;20033;-81
2020/12/02 06:41:55;;;;;;;54.67;33.28;;;;;;;3.65;100.00;101159.00;5199030;28;20052;-82
2020/12/02 06:44:40;;;;;;;51.15;30.88;;;;;;;3.61;100.00;101162.44;5203342;28;20026;-82
2020/12/02 06:47:18;;;;;;;;;;;;;;;3.69;100.00;101163.34;5203919;28;20045;-81
2020/12/02 06:49:52;;;;;;;53.03;31.17;;;;;;;3.79;100.00;101162.47;5203330;28;20003;-82
2020/12/02 06:52:36;;;;;;;52.00;32.70;;;;;;;3.72;100.00;101159.88;5203931;28;20052;-82
2020/12/02 06:55:26;;;;;;;54.58;33.63;;;;;;;3.91;100.00;101167.66;5203652;28;20495;-81
2020/12/02 06:58:11;;;;;;;52.67;31.95;;;;;;;3.81;100.00;101160.75;5203623;28;20060;-81
2020/12/02 07:00:52;;;;;;;53.15;32.67;;;;;;;3.87;100.00;101171.09;5204346;28;20076;-82
2020/12/02 07:03:30;;;;;;;53.13;31.92;;;;;;;3.63;100.00;101165.03;5201916;28;20080;-82
2020/12/02 07:06:13;;;;;;;55.65;32.60;;;;;;;3.49;100.00;101171.03;5198012;28;20818;-81
2020/12/02 07:08:45;;;;;;;56.45;34.08;;;;;;;3.50;100.00;101173.63;5205978;28;20029;-82
2020/12/02 07:11:19;;;;;;;55.88;33.90;;;;;;;3.43;100.00;101176.19;5202072;28;20039;-81
2020/12/02 07:13:52;;;;;;;54.85;33.47;;;;;;;3.46;100.00;101176.19;5203414;28;20430;-82
2020/12/02 07:16:26;;;;;;;60.03;34.05;;;;;;;3.44;100.00;101183.06;5204635;28;20047;-82
2020/12/02 07:19:27;;;;;;;58.47;33.33;;;;;;;3.49;100.00;101176.19;5203119;28;20029;-82
2020/12/02 07:22:03;;;;;;;62.35;33.50;;;;;;;3.42;100.00;101171.88;5186481;28;20045;-82
2020/12/02 07:24:46;;;;;;;;;;;;;;;3.43;100.00;101168.44;5203609;28;20056;-82
2020/12/02 07:27:20;;;;;;;56.95;32.72;;;;;;;3.37;100.00;101177.03;5203445;28;20413;-82
2020/12/02 07:30:03;;;;;;;56.33;33.38;;;;;;;3.41;100.00;101173.63;5200247;28;20034;-82
2020/12/02 07:32:34;;;;;;;59.92;33.28;;;;;;;3.37;100.00;101171.84;5202108;28;20029;-82
2020/12/02 07:35:16;;;;;;;58.13;34.28;;;;;;;3.32;100.00;101168.41;5201999;28;20079;-82
2020/12/02 07:37:46;;;;;;;61.30;35.00;;;;;;;3.22;100.00;101163.22;5203060;28;20641;-82
2020/12/02 07:40:36;;;;;;;56.33;34.25;;;;;;;3.34;100.00;101171.84;5203712;28;20075;-82
2020/12/02 07:43:23;;;;;;;56.63;32.83;;;;;;;3.55;100.00;101168.47;5201451;28;20081;-82
2020/12/02 07:45:57;;;;;;;55.97;32.50;;;;;;;3.52;100.00;101165.88;5201168;28;20040;-81
2020/12/02 07:48:30;;;;;;;56.58;33.67;;;;;;;3.53;100.00;101168.47;5201525;28;20095;-82
2020/12/02 07:51:08;;;;;;;55.53;33.22;;;;;;;3.39;100.00;101158.97;5203125;28;20475;-82
2020/12/02 07:53:51;;;;;;;55.63;33.63;;;;;;;3.44;100.00;101157.25;5202212;28;20029;-82
2020/12/02 07:56:30;;;;;;;56.88;35.20;;;;;;;3.42;100.00;101161.53;5202981;28;20036;-82
2020/12/02 07:59:05;;;;;;;59.05;35.47;;;;;;;3.42;100.00;101165.00;5195912;28;20029;-82
2020/12/02 08:01:35;;;;;;;55.85;33.90;;;;;;;3.59;100.00;101159.00;5202610;28;20079;-82
2020/12/02 08:04:21;;;;;;;57.17;33.83;;;;;;;3.58;100.00;101156.44;5202902;28;20029;-82
2020/12/02 08:07:02;;;;;;;64.57;33.60;;;;;;;3.64;100.00;101157.28;5202957;28;20630;-82
2020/12/02 08:09:42;;;;;;;61.95;35.30;;;;;;;3.55;100.00;101150.38;5202924;28;20030;-82
2020/12/02 08:12:19;;;;;;;60.00;35.72;;;;;;;3.50;100.00;101162.44;5200855;28;20534;-82
2020/12/02 08:15:02;;;;;;;58.53;34.53;;;;;;;3.65;100.00;101148.66;5199993;28;20108;-82
2020/12/02 08:17:33;;;;;;;53.60;33.40;;;;;;;3.58;100.00;101152.09;5200352;28;20026;-82
2020/12/02 08:20:30;;;;;;;60.13;34.90;;;;;;;3.72;100.00;101154.69;5200581;28;20606;-82
2020/12/02 08:23:15;;;;;;;58.65;35.13;;;;;;;3.73;100.00;101157.31;5199891;28;20025;-79
2020/12/02 08:25:45;;;;;;;57.30;33.95;;;;;;;3.71;100.00;101159.03;5200423;28;20029;-79
2020/12/02 08:28:22;;;;;;;58.67;34.90;;;;;;;3.67;100.00;101157.31;5201730;28;20033;-79
2020/12/02 08:31:13;;;;;;;57.08;33.42;;;;;;;3.88;100.00;101156.44;5201903;28;20371;-79
2020/12/02 08:34:21;;;;;;;54.33;33.28;;;;;;;3.90;100.00;101140.06;5204961;28;20026;-79
2020/12/02 08:37:12;;;;;;;55.85;33.17;;;;;;;3.77;100.00;101153.00;5205233;28;20053;-79
2020/12/02 08:39:49;;;;;;;57.28;33.28;;;;;;;3.77;100.00;101147.84;5206049;28;20036;-79
2020/12/02 08:42:32;;;;;;;56.20;33.70;;;;;;;3.73;100.00;101151.25;5206752;28;20395;-79
2020/12/02 08:45:20;;;;;;;57.33;34.05;;;;;;;3.64;100.00;101146.94;5199430;28;20080;-79
2020/12/02 08:47:55;;;;;;;55.08;32.90;;;;;;;3.76;100.00;101146.97;5205574;28;20021;-79
2020/12/02 08:50:28;;;;;;;54.70;32.97;;;;;;;3.66;100.00;101144.38;5205796;28;20503;-79
2020/12/02 08:52:59;;;;;;;54.00;33.25;;;;;;;3.88;100.00;101144.38;5205220;28;20033;-79
2020/12/02 08:55:29;;;;;;;55.83;33.97;;;;;;;3.60;100.00;101142.63;5205616;28;20033;-79
2020/12/02 08:57:59;;;;;;;59.40;35.30;;;;;;;3.61;100.00;101136.59;5206319;28;20036;-79
2020/12/02 09:00:30;;;;;;;58.90;36.25;;;;;;;3.60;100.00;101140.03;5205361;28;20030;-79
2020/12/02 09:03:00;;;;;;;59.75;35.63;;;;;;;3.66;100.00;101140.06;5205991;28;20067;-79
2020/12/02 09:05:31;;;;;;;62.08;34.40;;;;;;;3.58;100.00;101138.34;5206283;28;20068;-79
2020/12/02 09:08:02;;;;;;;59.63;35.22;;;;;;;3.66;100.00;101134.91;5206484;28;20061;-79
2020/12/02 09:10:32;;;;;;;56.58;34.65;;;;;;;3.60;100.00;101136.63;5206037;28;20087;-79
2020/12/02 09:13:02;;;;;;;56.65;35.47;;;;;;;3.68;100.00;101133.19;5205827;28;20052;-79
2020/12/02 09:15:33;;;;;;;55.70;33.78;;;;;;;3.77;100.00;101132.31;5205738;28;20039;-79
2020/12/02 09:18:03;;;;;;;57.88;33.78;;;;;;;3.66;100.00;101127.16;5206305;28;20036;-79
2020/12/02 09:20:33;;;;;;;56.90;33.80;;;;;;;3.90;100.00;101134.91;5204819;28;20095;-79
2020/12/02 09:23:03;;;;;;;53.30;32.17;;;;;;;3.76;100.00;101131.44;5206239;28;20037;-79
2020/12/02 09:25:34;;;;;;;56.15;34.05;;;;;;;3.67;100.00;101126.28;5206399;28;20029;-79
2020/12/02 09:28:04;;;;;;;56.17;34.20;;;;;;;3.66;100.00;101119.41;5206321;28;20087;-79
2020/12/02 09:30:35;;;;;;;57.78;34.25;;;;;;;3.62;100.00;101114.22;5205781;28;20483;-79
2020/12/02 09:33:06;;;;;;;56.17;33.63;;;;;;;3.82;100.00;101109.91;5206472;28;20029;-79
2020/12/02 09:35:36;;;;;;;56.85;34.78;;;;;;;3.80;100.00;101109.91;5204467;28;20593;-79
2020/12/02 09:38:09;;;;;;;55.17;32.63;;;;;;;4.00;100.00;101102.16;5205232;28;20446;-79
2020/12/02 09:40:39;;;;;;;60.10;34.97;;;;;;;3.99;100.00;101101.28;5205316;28;20022;-79
2020/12/02 09:43:24;;;;;;;53.90;33.10;;;;;;;4.06;100.00;101092.66;5205051;28;20079;-79
2020/12/02 09:46:17;;;;;;;59.17;34.10;;;;;;;3.94;100.00;101084.91;5204768;28;20493;-79
2020/12/02 09:48:48;;;;;;;54.20;33.00;;;;;;;3.69;100.00;101090.97;5205923;28;20033;-79
2020/12/02 09:51:27;;;;;;;57.42;34.67;;;;;;;4.07;100.00;101081.47;5204113;28;20032;-79
2020/12/02 09:53:58;;;;;;;54.60;33.20;;;;;;;4.15;100.00;101084.03;5209784;28;20025;-79
2020/12/02 09:56:28;;;;;;;55.35;33.97;;;;;;;4.05;100.00;101083.19;5206196;28;20031;-79
2020/12/02 09:58:59;;;;;;;57.20;33.65;;;;;;;4.16;100.00;101076.25;5205992;28;20102;-79
2020/12/02 10:01:37;;;;;;;57.65;34.10;;;;;;;4.10;100.00;101065.09;5203502;28;20073;-79
2020/12/02 10:04:28;;;;;;;56.42;33.75;;;;;;;4.00;100.00;101072.00;5204753;28;20383;-79
2020/12/02 10:07:12;;;;;;;50.67;32.72;;;;;;;3.94;100.00;101065.97;5205359;28;20049;-79
2020/12/02 10:10:08;;;;;;;54.40;31.33;;;;;;;3.96;99.96;101070.25;5206918;28;20017;-79
2020/12/02 10:12:47;;;;;;;54.55;32.22;;;;;;;4.06;100.00;101064.22;5205166;28;20052;-79
2020/12/02 10:15:32;;;;;;;54.67;31.98;;;;;;;3.95;100.00;101059.94;5204757;28;20108;-79
2020/12/02 10:18:27;;;;;;;51.10;30.92;;;;;;;3.95;98.65;101055.63;5205377;28;20041;-79
2020/12/02 10:21:26;;;;;;;48.13;30.38;;;;;;;4.08;97.52;101053.88;5205557;28;20101;-79
2020/12/02 10:24:11;;;;;;;51.00;30.58;;;;;;;4.23;97.41;101056.41;5183396;28;20407;-79
2020/12/02 10:27:02;;;;;;;48.80;29.57;;;;;;;4.27;98.21;101051.25;5205157;28;20068;-79
2020/12/02 10:29:46;;;;;;;49.78;29.25;;;;;;;4.34;96.57;101039.16;5205201;28;20056;-79
2020/12/02 10:32:35;;;;;;;53.92;30.58;;;;;;;4.22;96.53;101032.28;5205879;28;20033;-80
2020/12/02 10:35:05;;;;;;;50.75;31.05;;;;;;;4.26;97.52;101026.25;5206842;28;20415;-79
2020/12/02 10:37:39;;;;;;;48.83;28.85;;;;;;;4.26;96.11;101022.81;5205963;28;20048;-82
2020/12/02 10:40:11;;;;;;;49.65;30.35;;;;;;;4.35;96.27;101023.63;5204406;28;20475;-82
2020/12/02 10:43:05;;;;;;;49.67;29.83;;;;;;;4.46;96.53;101019.25;5205407;28;20065;-82
2020/12/02 10:45:35;;;;;;;48.53;29.13;;;;;;;4.39;95.12;101012.41;5203719;28;20029;-82
2020/12/02 10:48:42;;;;;;;48.17;28.85;;;;;;;4.41;94.73;101000.31;5204404;28;20029;-82
2020/12/02 10:51:13;;;;;;;;;;;;;;;4.59;95.85;100995.06;5204336;28;20056;-82
2020/12/02 10:53:49;;;;;;;51.28;30.05;;;;;;;4.44;96.16;100995.13;5204133;28;20563;-82
2020/12/02 10:56:22;;;;;;;50.63;30.23;;;;;;;4.61;94.29;100988.16;5202984;28;20116;-82
2020/12/02 10:58:54;;;;;;;50.35;29.83;;;;;;;4.67;94.26;100988.09;5202609;28;20033;-82
2020/12/02 11:01:24;;;;;;;49.72;29.58;;;;;;;4.63;93.99;100980.38;5203369;28;20030;-82
2020/12/02 11:03:58;;;;;;;50.08;29.70;;;;;;;4.34;93.57;100977.06;5203222;28;20025;-82
2020/12/02 11:06:29;;;;;;;50.28;31.40;;;;;;;4.34;95.62;100965.00;5203803;28;20430;-82
2020/12/02 11:09:19;;;;;;;52.08;30.52;;;;;;;4.59;95.20;100964.00;5203915;28;20056;-82
2020/12/02 11:12:20;;;;;;;49.70;29.00;;;;;;;4.72;94.21;100959.63;5203176;28;20479;-82
2020/12/02 11:15:04;;;;;;;48.42;29.13;;;;;;;4.78;92.46;100952.69;5202756;28;20104;-82
2020/12/02 11:17:46;;;;;;;46.08;28.13;;;;;;;4.92;92.06;100945.69;5203655;28;20025;-82
2020/12/02 11:20:24;;;;;;;44.58;27.20;;;;;;;4.71;91.98;100951.00;5203448;28;20030;-82
2020/12/02 11:23:18;;;;;;;43.78;26.23;;;;;;;4.76;91.67;100943.19;5210639;28;20625;-82
2020/12/02 11:26:10;;;;;;;44.25;25.13;;;;;;;4.65;91.62;100932.91;5202140;28;20175;-82
2020/12/02 11:28:42;;;;;;;39.38;24.15;;;;;;;4.71;91.07;100921.66;5203217;28;20546;-82
2020/12/02 11:31:54;;;;;;;37.50;23.20;;;;;;;4.64;90.78;100918.25;5198488;28;20037;-83
2020/12/02 11:34:43;;;;;;;54.13;30.38;;;;;;;4.81;93.63;100916.41;5176264;28;20057;-82
2020/12/02 11:37:19;;;;;;;44.58;26.20;;;;;;;4.78;92.12;100908.66;5200577;28;20542;-82
2020/12/02 11:40:07;;;;;;;46.40;28.50;;;;;;;4.98;93.51;100895.59;5203629;28;20034;-84
2020/12/02 11:42:37;;;;;;;56.10;32.33;;;;;;;4.80;93.17;100899.16;5202666;28;20403;-84
2020/12/02 11:45:21;;;;;;;55.13;32.28;;;;;;;4.87;92.82;100898.25;5202873;28;20033;-83
2020/12/02 11:48:21;;;;;;;47.38;28.25;;;;;;;4.76;92.01;100888.81;5202890;28;20060;-82
2020/12/02 11:51:02;;;;;;;57.95;31.80;;;;;;;4.76;92.04;100889.69;5202835;28;20056;-82
2020/12/02 11:53:55;;;;;;;52.53;31.25;;;;;;;4.80;93.04;100883.63;5202900;28;20043;-81
2020/12/02 11:56:41;;;;;;;56.30;32.50;;;;;;;4.60;93.40;100888.09;5203631;28;20025;-82